sensor_id;sensor_type;location;lat;lon;timestamp;P1;durP1;ratioP1;P2;durP2;ratioP2
16153;SDS011;8182;55.648;13.208;2024-03-06T00:01:54;10.27;;;6.27;;
16153;SDS011;8182;55.648;13.208;2024-03-06T00:04:21;8.10;;;6.47;;
16153;SDS011;8182;55.648;13.208;2024-03-06T00:06:48;9.43;;;7.10;;
16153;SDS011;8182;55.648;13.208;2024-03-06T00:09:17;6.37;;;5.00;;
16153;SDS011;8182;55.648;13.208;2024-03-06T00:11:44;10.10;;;7.47;;
16153;SDS011;8182;55.648;13.208;2024-03-06T00:14:13;9.83;;;6.70;;
16153;SDS011;8182;55.648;13.208;2024-03-06T00:16:39;9.63;;;6.57;;
16153;SDS011;8182;55.648;13.208;2024-03-06T00:19:06;8.67;;;7.10;;
16153;SDS011;8182;55.648;13.208;2024-03-06T00:21:33;9.00;;;6.67;;
16153;SDS011;8182;55.648;13.208;2024-03-06T00:24:01;10.40;;;5.70;;
16153;SDS011;8182;55.648;13.208;2024-03-06T00:26:28;11.57;;;7.67;;
16153;SDS011;8182;55.648;13.208;2024-03-06T00:28:55;9.43;;;7.23;;
16153;SDS011;8182;55.648;13.208;2024-03-06T00:31:24;10.80;;;7.27;;
16153;SDS011;8182;55.648;13.208;2024-03-06T00:33:50;10.77;;;6.80;;
16153;SDS011;8182;55.648;13.208;2024-03-06T00:36:18;12.00;;;7.00;;
16153;SDS011;8182;55.648;13.208;2024-03-06T00:38:44;11.17;;;7.23;;
16153;SDS011;8182;55.648;13.208;2024-03-06T00:41:11;9.97;;;7.20;;
16153;SDS011;8182;55.648;13.208;2024-03-06T00:43:38;9.47;;;6.17;;
16153;SDS011;8182;55.648;13.208;2024-03-06T00:46:05;9.90;;;5.60;;
16153;SDS011;8182;55.648;13.208;2024-03-06T00:48:33;9.97;;;7.33;;
16153;SDS011;8182;55.648;13.208;2024-03-06T00:51:02;11.03;;;7.60;;
16153;SDS011;8182;55.648;13.208;2024-03-06T00:53:29;7.03;;;5.03;;
16153;SDS011;8182;55.648;13.208;2024-03-06T00:55:56;9.70;;;7.40;;
16153;SDS011;8182;55.648;13.208;2024-03-06T00:58:23;13.37;;;7.90;;
16153;SDS011;8182;55.648;13.208;2024-03-06T01:00:50;16.60;;;8.37;;
16153;SDS011;8182;55.648;13.208;2024-03-06T01:03:17;13.20;;;8.87;;
16153;SDS011;8182;55.648;13.208;2024-03-06T01:05:48;10.57;;;6.00;;
16153;SDS011;8182;55.648;13.208;2024-03-06T01:08:17;12.97;;;8.40;;
16153;SDS011;8182;55.648;13.208;2024-03-06T01:10:47;12.97;;;7.37;;
16153;SDS011;8182;55.648;13.208;2024-03-06T01:13:14;9.83;;;6.63;;
16153;SDS011;8182;55.648;13.208;2024-03-06T01:15:41;12.83;;;7.20;;
16153;SDS011;8182;55.648;13.208;2024-03-06T01:18:08;12.23;;;6.37;;
16153;SDS011;8182;55.648;13.208;2024-03-06T01:20:35;9.10;;;6.03;;
16153;SDS011;8182;55.648;13.208;2024-03-06T01:23:03;12.57;;;6.37;;
16153;SDS011;8182;55.648;13.208;2024-03-06T01:25:30;10.53;;;5.50;;
16153;SDS011;8182;55.648;13.208;2024-03-06T01:27:57;11.33;;;6.20;;
16153;SDS011;8182;55.648;13.208;2024-03-06T01:30:24;17.60;;;9.77;;
16153;SDS011;8182;55.648;13.208;2024-03-06T01:32:51;21.10;;;10.80;;
16153;SDS011;8182;55.648;13.208;2024-03-06T01:35:18;16.83;;;10.40;;
16153;SDS011;8182;55.648;13.208;2024-03-06T01:37:45;19.03;;;9.70;;
16153;SDS011;8182;55.648;13.208;2024-03-06T01:40:13;16.73;;;10.70;;
16153;SDS011;8182;55.648;13.208;2024-03-06T01:42:41;11.27;;;6.33;;
16153;SDS011;8182;55.648;13.208;2024-03-06T01:45:08;21.53;;;10.80;;
16153;SDS011;8182;55.648;13.208;2024-03-06T01:47:35;19.10;;;9.30;;
16153;SDS011;8182;55.648;13.208;2024-03-06T01:50:02;23.17;;;11.73;;
16153;SDS011;8182;55.648;13.208;2024-03-06T01:52:34;21.77;;;11.80;;
16153;SDS011;8182;55.648;13.208;2024-03-06T01:55:01;22.20;;;10.80;;
16153;SDS011;8182;55.648;13.208;2024-03-06T01:57:31;19.83;;;11.70;;
16153;SDS011;8182;55.648;13.208;2024-03-06T02:00:00;20.67;;;9.20;;
16153;SDS011;8182;55.648;13.208;2024-03-06T02:02:29;12.27;;;7.70;;
16153;SDS011;8182;55.648;13.208;2024-03-06T02:04:57;20.37;;;9.73;;
16153;SDS011;8182;55.648;13.208;2024-03-06T02:07:25;21.70;;;9.93;;
16153;SDS011;8182;55.648;13.208;2024-03-06T02:09:52;18.57;;;11.07;;
16153;SDS011;8182;55.648;13.208;2024-03-06T02:12:19;16.57;;;8.47;;
16153;SDS011;8182;55.648;13.208;2024-03-06T02:14:47;18.10;;;9.40;;
16153;SDS011;8182;55.648;13.208;2024-03-06T02:17:15;14.03;;;7.63;;
16153;SDS011;8182;55.648;13.208;2024-03-06T02:19:43;22.77;;;11.90;;
16153;SDS011;8182;55.648;13.208;2024-03-06T02:22:10;14.27;;;8.67;;
16153;SDS011;8182;55.648;13.208;2024-03-06T02:24:38;18.93;;;8.73;;
16153;SDS011;8182;55.648;13.208;2024-03-06T02:27:10;18.23;;;10.13;;
16153;SDS011;8182;55.648;13.208;2024-03-06T02:29:36;22.77;;;9.53;;
16153;SDS011;8182;55.648;13.208;2024-03-06T02:32:04;21.27;;;10.93;;
16153;SDS011;8182;55.648;13.208;2024-03-06T02:34:31;15.90;;;9.73;;
16153;SDS011;8182;55.648;13.208;2024-03-06T02:36:57;19.77;;;11.23;;
16153;SDS011;8182;55.648;13.208;2024-03-06T02:39:26;9.30;;;6.30;;
16153;SDS011;8182;55.648;13.208;2024-03-06T02:41:52;23.53;;;10.23;;
16153;SDS011;8182;55.648;13.208;2024-03-06T02:44:19;20.97;;;9.37;;
16153;SDS011;8182;55.648;13.208;2024-03-06T02:46:49;18.93;;;9.20;;
16153;SDS011;8182;55.648;13.208;2024-03-06T02:49:16;22.03;;;10.87;;
16153;SDS011;8182;55.648;13.208;2024-03-06T02:51:44;15.67;;;7.90;;
16153;SDS011;8182;55.648;13.208;2024-03-06T02:54:11;20.17;;;11.50;;
16153;SDS011;8182;55.648;13.208;2024-03-06T02:56:39;19.37;;;11.03;;
16153;SDS011;8182;55.648;13.208;2024-03-06T02:59:06;18.57;;;10.87;;
16153;SDS011;8182;55.648;13.208;2024-03-06T03:01:34;22.57;;;11.97;;
16153;SDS011;8182;55.648;13.208;2024-03-06T03:04:00;21.57;;;9.80;;
16153;SDS011;8182;55.648;13.208;2024-03-06T03:06:27;18.07;;;11.67;;
16153;SDS011;8182;55.648;13.208;2024-03-06T03:08:54;20.60;;;11.00;;
16153;SDS011;8182;55.648;13.208;2024-03-06T03:11:22;19.33;;;10.87;;
16153;SDS011;8182;55.648;13.208;2024-03-06T03:13:50;20.60;;;11.57;;
16153;SDS011;8182;55.648;13.208;2024-03-06T03:16:17;18.67;;;10.43;;
16153;SDS011;8182;55.648;13.208;2024-03-06T03:18:45;20.67;;;10.20;;
16153;SDS011;8182;55.648;13.208;2024-03-06T03:21:13;22.17;;;11.27;;
16153;SDS011;8182;55.648;13.208;2024-03-06T03:23:40;16.93;;;8.70;;
16153;SDS011;8182;55.648;13.208;2024-03-06T03:26:07;9.23;;;5.07;;
16153;SDS011;8182;55.648;13.208;2024-03-06T03:28:37;20.93;;;11.73;;
16153;SDS011;8182;55.648;13.208;2024-03-06T03:31:05;13.63;;;7.30;;
16153;SDS011;8182;55.648;13.208;2024-03-06T03:33:34;21.63;;;11.13;;
16153;SDS011;8182;55.648;13.208;2024-03-06T03:36:03;24.63;;;11.23;;
16153;SDS011;8182;55.648;13.208;2024-03-06T03:38:31;21.53;;;12.07;;
16153;SDS011;8182;55.648;13.208;2024-03-06T03:40:57;20.73;;;10.93;;
16153;SDS011;8182;55.648;13.208;2024-03-06T03:43:24;23.03;;;11.93;;
16153;SDS011;8182;55.648;13.208;2024-03-06T03:45:51;18.73;;;10.23;;
16153;SDS011;8182;55.648;13.208;2024-03-06T03:48:19;18.90;;;10.13;;
16153;SDS011;8182;55.648;13.208;2024-03-06T03:50:46;27.53;;;12.67;;
16153;SDS011;8182;55.648;13.208;2024-03-06T03:53:13;18.50;;;10.40;;
16153;SDS011;8182;55.648;13.208;2024-03-06T03:55:41;22.20;;;9.70;;
16153;SDS011;8182;55.648;13.208;2024-03-06T03:58:07;20.37;;;11.67;;
16153;SDS011;8182;55.648;13.208;2024-03-06T04:00:34;18.80;;;8.03;;
16153;SDS011;8182;55.648;13.208;2024-03-06T04:03:03;21.90;;;10.43;;
16153;SDS011;8182;55.648;13.208;2024-03-06T04:05:31;21.53;;;11.63;;
16153;SDS011;8182;55.648;13.208;2024-03-06T04:07:59;12.63;;;7.03;;
16153;SDS011;8182;55.648;13.208;2024-03-06T04:10:26;23.93;;;12.53;;
16153;SDS011;8182;55.648;13.208;2024-03-06T04:12:53;24.60;;;12.10;;
16153;SDS011;8182;55.648;13.208;2024-03-06T04:15:20;25.73;;;11.57;;
16153;SDS011;8182;55.648;13.208;2024-03-06T04:17:47;23.03;;;12.57;;
16153;SDS011;8182;55.648;13.208;2024-03-06T04:20:13;23.40;;;11.83;;
16153;SDS011;8182;55.648;13.208;2024-03-06T04:22:42;21.23;;;11.07;;
16153;SDS011;8182;55.648;13.208;2024-03-06T04:25:11;23.23;;;12.50;;
16153;SDS011;8182;55.648;13.208;2024-03-06T04:27:38;22.73;;;12.30;;
16153;SDS011;8182;55.648;13.208;2024-03-06T04:30:05;18.70;;;10.90;;
16153;SDS011;8182;55.648;13.208;2024-03-06T04:32:33;21.97;;;10.40;;
16153;SDS011;8182;55.648;13.208;2024-03-06T04:35:00;16.80;;;8.70;;
16153;SDS011;8182;55.648;13.208;2024-03-06T04:37:27;23.53;;;12.10;;
16153;SDS011;8182;55.648;13.208;2024-03-06T04:39:55;17.37;;;8.67;;
16153;SDS011;8182;55.648;13.208;2024-03-06T04:42:22;9.43;;;5.40;;
16153;SDS011;8182;55.648;13.208;2024-03-06T04:44:49;17.80;;;7.47;;
16153;SDS011;8182;55.648;13.208;2024-03-06T04:47:16;22.33;;;11.17;;
16153;SDS011;8182;55.648;13.208;2024-03-06T04:49:47;24.00;;;12.33;;
16153;SDS011;8182;55.648;13.208;2024-03-06T04:52:15;22.23;;;10.23;;
16153;SDS011;8182;55.648;13.208;2024-03-06T04:54:42;27.13;;;12.97;;
16153;SDS011;8182;55.648;13.208;2024-03-06T04:57:10;28.37;;;12.27;;
16153;SDS011;8182;55.648;13.208;2024-03-06T04:59:37;20.20;;;12.17;;
16153;SDS011;8182;55.648;13.208;2024-03-06T05:02:05;21.77;;;9.73;;
16153;SDS011;8182;55.648;13.208;2024-03-06T05:04:31;21.90;;;10.80;;
16153;SDS011;8182;55.648;13.208;2024-03-06T05:06:57;16.97;;;10.13;;
16153;SDS011;8182;55.648;13.208;2024-03-06T05:09:24;15.40;;;8.00;;
16153;SDS011;8182;55.648;13.208;2024-03-06T05:11:51;12.97;;;7.57;;
16153;SDS011;8182;55.648;13.208;2024-03-06T05:14:19;9.23;;;5.37;;
16153;SDS011;8182;55.648;13.208;2024-03-06T05:16:46;20.20;;;10.00;;
16153;SDS011;8182;55.648;13.208;2024-03-06T05:19:13;15.00;;;8.63;;
16153;SDS011;8182;55.648;13.208;2024-03-06T05:21:40;13.43;;;7.90;;
16153;SDS011;8182;55.648;13.208;2024-03-06T05:24:07;16.30;;;8.90;;
16153;SDS011;8182;55.648;13.208;2024-03-06T05:26:36;16.37;;;8.53;;
16153;SDS011;8182;55.648;13.208;2024-03-06T05:29:03;14.53;;;8.33;;
16153;SDS011;8182;55.648;13.208;2024-03-06T05:31:31;10.20;;;6.30;;
16153;SDS011;8182;55.648;13.208;2024-03-06T05:33:58;10.13;;;5.87;;
16153;SDS011;8182;55.648;13.208;2024-03-06T05:36:26;8.27;;;5.33;;
16153;SDS011;8182;55.648;13.208;2024-03-06T05:38:53;11.37;;;7.37;;
16153;SDS011;8182;55.648;13.208;2024-03-06T05:41:19;12.37;;;6.43;;
16153;SDS011;8182;55.648;13.208;2024-03-06T05:43:46;11.10;;;7.13;;
16153;SDS011;8182;55.648;13.208;2024-03-06T05:46:14;9.43;;;6.63;;
16153;SDS011;8182;55.648;13.208;2024-03-06T05:48:43;10.13;;;7.17;;
16153;SDS011;8182;55.648;13.208;2024-03-06T05:51:09;9.63;;;6.73;;
16153;SDS011;8182;55.648;13.208;2024-03-06T05:53:36;8.17;;;4.80;;
16153;SDS011;8182;55.648;13.208;2024-03-06T05:56:06;5.77;;;3.53;;
16153;SDS011;8182;55.648;13.208;2024-03-06T05:58:33;7.50;;;5.60;;
16153;SDS011;8182;55.648;13.208;2024-03-06T06:01:00;9.50;;;7.50;;
16153;SDS011;8182;55.648;13.208;2024-03-06T06:03:28;8.13;;;5.77;;
16153;SDS011;8182;55.648;13.208;2024-03-06T06:05:56;6.83;;;5.70;;
16153;SDS011;8182;55.648;13.208;2024-03-06T06:08:24;6.93;;;5.20;;
16153;SDS011;8182;55.648;13.208;2024-03-06T06:10:50;6.90;;;4.83;;
16153;SDS011;8182;55.648;13.208;2024-03-06T06:13:17;4.93;;;3.47;;
16153;SDS011;8182;55.648;13.208;2024-03-06T06:15:44;4.80;;;3.90;;
16153;SDS011;8182;55.648;13.208;2024-03-06T06:18:11;7.17;;;4.87;;
16153;SDS011;8182;55.648;13.208;2024-03-06T06:20:40;6.10;;;4.47;;
16153;SDS011;8182;55.648;13.208;2024-03-06T06:23:09;5.40;;;4.57;;
16153;SDS011;8182;55.648;13.208;2024-03-06T06:25:35;7.60;;;5.43;;
16153;SDS011;8182;55.648;13.208;2024-03-06T06:28:03;7.57;;;5.40;;
16153;SDS011;8182;55.648;13.208;2024-03-06T06:30:30;10.00;;;5.27;;
16153;SDS011;8182;55.648;13.208;2024-03-06T06:32:58;7.97;;;5.50;;
16153;SDS011;8182;55.648;13.208;2024-03-06T06:35:25;4.83;;;2.97;;
16153;SDS011;8182;55.648;13.208;2024-03-06T06:37:52;8.23;;;5.60;;
16153;SDS011;8182;55.648;13.208;2024-03-06T06:40:20;10.40;;;4.70;;
16153;SDS011;8182;55.648;13.208;2024-03-06T06:42:48;11.23;;;5.90;;
16153;SDS011;8182;55.648;13.208;2024-03-06T06:45:15;7.53;;;6.00;;
16153;SDS011;8182;55.648;13.208;2024-03-06T06:47:43;4.10;;;3.70;;
16153;SDS011;8182;55.648;13.208;2024-03-06T06:50:13;7.13;;;4.70;;
16153;SDS011;8182;55.648;13.208;2024-03-06T06:52:40;6.67;;;4.50;;
16153;SDS011;8182;55.648;13.208;2024-03-06T06:55:07;5.87;;;4.40;;
16153;SDS011;8182;55.648;13.208;2024-03-06T06:57:37;4.87;;;3.80;;
16153;SDS011;8182;55.648;13.208;2024-03-06T07:00:05;6.70;;;4.80;;
16153;SDS011;8182;55.648;13.208;2024-03-06T07:02:35;4.83;;;3.47;;
16153;SDS011;8182;55.648;13.208;2024-03-06T07:05:03;5.30;;;4.17;;
16153;SDS011;8182;55.648;13.208;2024-03-06T07:07:31;4.67;;;4.07;;
16153;SDS011;8182;55.648;13.208;2024-03-06T07:09:58;3.83;;;3.43;;
16153;SDS011;8182;55.648;13.208;2024-03-06T07:12:25;7.17;;;4.37;;
16153;SDS011;8182;55.648;13.208;2024-03-06T07:14:53;6.13;;;4.00;;
16153;SDS011;8182;55.648;13.208;2024-03-06T07:17:20;5.97;;;4.20;;
16153;SDS011;8182;55.648;13.208;2024-03-06T07:19:46;4.30;;;3.17;;
16153;SDS011;8182;55.648;13.208;2024-03-06T07:22:13;3.57;;;3.17;;
16153;SDS011;8182;55.648;13.208;2024-03-06T07:24:41;7.50;;;4.37;;
16153;SDS011;8182;55.648;13.208;2024-03-06T07:27:08;3.13;;;2.50;;
16153;SDS011;8182;55.648;13.208;2024-03-06T07:29:35;5.17;;;4.13;;
16153;SDS011;8182;55.648;13.208;2024-03-06T07:32:03;5.53;;;3.90;;
16153;SDS011;8182;55.648;13.208;2024-03-06T07:34:31;5.77;;;4.53;;
16153;SDS011;8182;55.648;13.208;2024-03-06T07:36:58;7.87;;;5.10;;
16153;SDS011;8182;55.648;13.208;2024-03-06T07:39:25;7.10;;;5.17;;
16153;SDS011;8182;55.648;13.208;2024-03-06T07:41:52;5.33;;;3.97;;
16153;SDS011;8182;55.648;13.208;2024-03-06T07:44:19;6.00;;;4.40;;
16153;SDS011;8182;55.648;13.208;2024-03-06T07:46:46;5.87;;;4.83;;
16153;SDS011;8182;55.648;13.208;2024-03-06T07:49:15;5.97;;;4.37;;
16153;SDS011;8182;55.648;13.208;2024-03-06T07:51:41;4.73;;;3.47;;
16153;SDS011;8182;55.648;13.208;2024-03-06T07:54:09;5.40;;;3.07;;
16153;SDS011;8182;55.648;13.208;2024-03-06T07:56:36;5.83;;;4.20;;
16153;SDS011;8182;55.648;13.208;2024-03-06T07:59:03;4.17;;;3.70;;
16153;SDS011;8182;55.648;13.208;2024-03-06T08:01:31;4.77;;;4.07;;
16153;SDS011;8182;55.648;13.208;2024-03-06T08:03:58;5.53;;;4.20;;
16153;SDS011;8182;55.648;13.208;2024-03-06T08:06:26;3.97;;;3.53;;
16153;SDS011;8182;55.648;13.208;2024-03-06T08:08:54;3.97;;;3.57;;
16153;SDS011;8182;55.648;13.208;2024-03-06T08:11:21;4.30;;;3.47;;
16153;SDS011;8182;55.648;13.208;2024-03-06T08:13:49;5.33;;;4.13;;
16153;SDS011;8182;55.648;13.208;2024-03-06T08:16:16;4.47;;;3.70;;
16153;SDS011;8182;55.648;13.208;2024-03-06T08:18:43;4.10;;;3.10;;
16153;SDS011;8182;55.648;13.208;2024-03-06T08:21:13;6.73;;;4.00;;
16153;SDS011;8182;55.648;13.208;2024-03-06T08:23:41;5.40;;;4.70;;
16153;SDS011;8182;55.648;13.208;2024-03-06T08:26:10;5.47;;;4.70;;
16153;SDS011;8182;55.648;13.208;2024-03-06T08:28:36;4.93;;;4.43;;
16153;SDS011;8182;55.648;13.208;2024-03-06T08:31:03;4.73;;;3.30;;
16153;SDS011;8182;55.648;13.208;2024-03-06T08:33:30;6.40;;;4.17;;
16153;SDS011;8182;55.648;13.208;2024-03-06T08:35:57;6.33;;;4.60;;
16153;SDS011;8182;55.648;13.208;2024-03-06T08:38:24;6.63;;;4.23;;
16153;SDS011;8182;55.648;13.208;2024-03-06T08:40:52;5.93;;;4.70;;
16153;SDS011;8182;55.648;13.208;2024-03-06T08:43:19;6.70;;;4.87;;
16153;SDS011;8182;55.648;13.208;2024-03-06T08:45:46;7.93;;;4.13;;
16153;SDS011;8182;55.648;13.208;2024-03-06T08:48:13;6.87;;;5.20;;
16153;SDS011;8182;55.648;13.208;2024-03-06T08:50:40;6.63;;;4.40;;
16153;SDS011;8182;55.648;13.208;2024-03-06T08:53:07;4.60;;;3.47;;
16153;SDS011;8182;55.648;13.208;2024-03-06T08:55:34;9.80;;;5.93;;
16153;SDS011;8182;55.648;13.208;2024-03-06T08:58:02;10.73;;;6.70;;
16153;SDS011;8182;55.648;13.208;2024-03-06T09:00:29;10.17;;;6.37;;
16153;SDS011;8182;55.648;13.208;2024-03-06T09:02:56;10.03;;;6.57;;
16153;SDS011;8182;55.648;13.208;2024-03-06T09:05:24;9.57;;;6.10;;
16153;SDS011;8182;55.648;13.208;2024-03-06T09:07:51;8.40;;;6.27;;
16153;SDS011;8182;55.648;13.208;2024-03-06T09:10:18;9.43;;;5.67;;
16153;SDS011;8182;55.648;13.208;2024-03-06T09:12:46;11.00;;;6.20;;
16153;SDS011;8182;55.648;13.208;2024-03-06T09:15:14;7.37;;;4.80;;
16153;SDS011;8182;55.648;13.208;2024-03-06T09:17:42;6.40;;;4.20;;
16153;SDS011;8182;55.648;13.208;2024-03-06T09:20:12;9.53;;;6.90;;
16153;SDS011;8182;55.648;13.208;2024-03-06T09:22:41;10.83;;;6.57;;
16153;SDS011;8182;55.648;13.208;2024-03-06T09:25:08;10.23;;;6.83;;
16153;SDS011;8182;55.648;13.208;2024-03-06T09:27:37;13.03;;;7.67;;
16153;SDS011;8182;55.648;13.208;2024-03-06T09:30:05;10.17;;;4.97;;
16153;SDS011;8182;55.648;13.208;2024-03-06T09:32:35;9.77;;;7.03;;
16153;SDS011;8182;55.648;13.208;2024-03-06T09:35:02;12.13;;;6.27;;
16153;SDS011;8182;55.648;13.208;2024-03-06T09:37:29;12.60;;;7.23;;
16153;SDS011;8182;55.648;13.208;2024-03-06T09:39:56;11.67;;;7.47;;
16153;SDS011;8182;55.648;13.208;2024-03-06T09:42:22;10.50;;;6.83;;
16153;SDS011;8182;55.648;13.208;2024-03-06T09:44:50;13.93;;;7.40;;
16153;SDS011;8182;55.648;13.208;2024-03-06T09:47:18;15.80;;;7.53;;
16153;SDS011;8182;55.648;13.208;2024-03-06T09:49:51;8.10;;;5.60;;
16153;SDS011;8182;55.648;13.208;2024-03-06T09:52:19;10.27;;;7.07;;
16153;SDS011;8182;55.648;13.208;2024-03-06T09:54:49;14.17;;;7.40;;
16153;SDS011;8182;55.648;13.208;2024-03-06T09:57:17;13.53;;;6.53;;
16153;SDS011;8182;55.648;13.208;2024-03-06T09:59:44;11.77;;;5.93;;
16153;SDS011;8182;55.648;13.208;2024-03-06T10:02:18;11.53;;;5.23;;
16153;SDS011;8182;55.648;13.208;2024-03-06T10:04:56;13.67;;;8.13;;
16153;SDS011;8182;55.648;13.208;2024-03-06T10:07:23;8.20;;;5.47;;
16153;SDS011;8182;55.648;13.208;2024-03-06T10:09:51;11.43;;;5.70;;
16153;SDS011;8182;55.648;13.208;2024-03-06T10:12:18;15.10;;;8.33;;
16153;SDS011;8182;55.648;13.208;2024-03-06T10:14:49;12.20;;;7.23;;
16153;SDS011;8182;55.648;13.208;2024-03-06T10:17:20;10.17;;;6.63;;
16153;SDS011;8182;55.648;13.208;2024-03-06T10:19:48;17.23;;;8.60;;
16153;SDS011;8182;55.648;13.208;2024-03-06T10:22:18;20.60;;;9.67;;
16153;SDS011;8182;55.648;13.208;2024-03-06T10:24:45;10.73;;;5.50;;
16153;SDS011;8182;55.648;13.208;2024-03-06T10:27:16;15.10;;;8.57;;
16153;SDS011;8182;55.648;13.208;2024-03-06T10:29:43;12.47;;;6.50;;
16153;SDS011;8182;55.648;13.208;2024-03-06T10:32:15;12.67;;;6.50;;
16153;SDS011;8182;55.648;13.208;2024-03-06T10:34:44;9.57;;;6.27;;
16153;SDS011;8182;55.648;13.208;2024-03-06T10:37:11;16.40;;;8.00;;
16153;SDS011;8182;55.648;13.208;2024-03-06T10:39:41;12.13;;;8.50;;
16153;SDS011;8182;55.648;13.208;2024-03-06T10:42:09;16.93;;;8.80;;
16153;SDS011;8182;55.648;13.208;2024-03-06T10:44:43;10.43;;;4.73;;
16153;SDS011;8182;55.648;13.208;2024-03-06T10:47:17;9.40;;;6.40;;
16153;SDS011;8182;55.648;13.208;2024-03-06T10:49:46;11.63;;;7.73;;
16153;SDS011;8182;55.648;13.208;2024-03-06T10:52:13;15.60;;;8.33;;
16153;SDS011;8182;55.648;13.208;2024-03-06T10:54:43;13.07;;;8.13;;
16153;SDS011;8182;55.648;13.208;2024-03-06T10:57:12;17.20;;;8.27;;
16153;SDS011;8182;55.648;13.208;2024-03-06T10:59:40;12.97;;;8.53;;
16153;SDS011;8182;55.648;13.208;2024-03-06T11:02:09;10.70;;;5.30;;
16153;SDS011;8182;55.648;13.208;2024-03-06T11:04:37;16.03;;;8.60;;
16153;SDS011;8182;55.648;13.208;2024-03-06T11:07:06;13.93;;;9.17;;
16153;SDS011;8182;55.648;13.208;2024-03-06T11:09:34;13.43;;;7.03;;
16153;SDS011;8182;55.648;13.208;2024-03-06T11:12:04;14.00;;;8.97;;
16153;SDS011;8182;55.648;13.208;2024-03-06T11:14:32;14.10;;;8.40;;
16153;SDS011;8182;55.648;13.208;2024-03-06T11:17:03;8.73;;;5.27;;
16153;SDS011;8182;55.648;13.208;2024-03-06T11:19:31;12.30;;;7.27;;
16153;SDS011;8182;55.648;13.208;2024-03-06T11:22:19;10.63;;;5.03;;
16153;SDS011;8182;55.648;13.208;2024-03-06T11:28:25;8.60;;;4.03;;
16153;SDS011;8182;55.648;13.208;2024-03-06T11:30:57;11.50;;;6.00;;
16153;SDS011;8182;55.648;13.208;2024-03-06T11:33:28;13.47;;;7.53;;
16153;SDS011;8182;55.648;13.208;2024-03-06T11:36:15;6.37;;;4.73;;
16153;SDS011;8182;55.648;13.208;2024-03-06T11:38:47;11.70;;;8.03;;
16153;SDS011;8182;55.648;13.208;2024-03-06T11:41:18;12.93;;;8.40;;
16153;SDS011;8182;55.648;13.208;2024-03-06T11:43:46;14.03;;;8.23;;
16153;SDS011;8182;55.648;13.208;2024-03-06T11:46:16;12.80;;;8.10;;
16153;SDS011;8182;55.648;13.208;2024-03-06T11:48:43;12.33;;;8.30;;
16153;SDS011;8182;55.648;13.208;2024-03-06T11:51:18;12.27;;;7.40;;
16153;SDS011;8182;55.648;13.208;2024-03-06T11:53:45;7.07;;;4.57;;
16153;SDS011;8182;55.648;13.208;2024-03-06T11:56:15;13.03;;;8.17;;
16153;SDS011;8182;55.648;13.208;2024-03-06T11:58:43;12.20;;;7.30;;
16153;SDS011;8182;55.648;13.208;2024-03-06T12:01:11;11.13;;;7.57;;
16153;SDS011;8182;55.648;13.208;2024-03-06T12:03:38;16.20;;;8.67;;
16153;SDS011;8182;55.648;13.208;2024-03-06T12:06:06;11.10;;;5.83;;
16153;SDS011;8182;55.648;13.208;2024-03-06T12:08:33;11.00;;;7.33;;
16153;SDS011;8182;55.648;13.208;2024-03-06T12:11:02;14.57;;;8.00;;
16153;SDS011;8182;55.648;13.208;2024-03-06T12:13:29;13.87;;;7.43;;
16153;SDS011;8182;55.648;13.208;2024-03-06T12:15:56;13.40;;;8.77;;
16153;SDS011;8182;55.648;13.208;2024-03-06T12:18:25;12.07;;;7.37;;
16153;SDS011;8182;55.648;13.208;2024-03-06T12:20:52;13.07;;;9.07;;
16153;SDS011;8182;55.648;13.208;2024-03-06T12:23:19;13.13;;;8.43;;
16153;SDS011;8182;55.648;13.208;2024-03-06T12:25:48;15.10;;;9.27;;
16153;SDS011;8182;55.648;13.208;2024-03-06T12:28:15;10.10;;;7.07;;
16153;SDS011;8182;55.648;13.208;2024-03-06T12:30:43;15.03;;;8.43;;
16153;SDS011;8182;55.648;13.208;2024-03-06T12:33:10;16.13;;;8.27;;
16153;SDS011;8182;55.648;13.208;2024-03-06T12:35:41;12.13;;;7.53;;
16153;SDS011;8182;55.648;13.208;2024-03-06T12:38:16;13.10;;;8.03;;
16153;SDS011;8182;55.648;13.208;2024-03-06T12:40:43;13.20;;;8.23;;
16153;SDS011;8182;55.648;13.208;2024-03-06T12:43:10;11.93;;;8.03;;
16153;SDS011;8182;55.648;13.208;2024-03-06T12:45:37;12.00;;;8.03;;
16153;SDS011;8182;55.648;13.208;2024-03-06T12:48:04;13.43;;;7.57;;
16153;SDS011;8182;55.648;13.208;2024-03-06T12:50:32;11.77;;;7.37;;
16153;SDS011;8182;55.648;13.208;2024-03-06T12:53:00;11.20;;;7.47;;
16153;SDS011;8182;55.648;13.208;2024-03-06T12:55:29;14.63;;;8.30;;
16153;SDS011;8182;55.648;13.208;2024-03-06T12:57:56;13.40;;;8.00;;
16153;SDS011;8182;55.648;13.208;2024-03-06T13:00:23;13.07;;;7.90;;
16153;SDS011;8182;55.648;13.208;2024-03-06T13:02:50;15.23;;;8.07;;
16153;SDS011;8182;55.648;13.208;2024-03-06T13:05:17;9.23;;;6.00;;
16153;SDS011;8182;55.648;13.208;2024-03-06T13:07:45;15.13;;;7.87;;
16153;SDS011;8182;55.648;13.208;2024-03-06T13:10:13;10.30;;;7.30;;
16153;SDS011;8182;55.648;13.208;2024-03-06T13:12:41;13.93;;;6.87;;
16153;SDS011;8182;55.648;13.208;2024-03-06T13:15:08;13.07;;;7.57;;
16153;SDS011;8182;55.648;13.208;2024-03-06T13:17:35;14.13;;;7.70;;
16153;SDS011;8182;55.648;13.208;2024-03-06T13:20:02;11.80;;;7.57;;
16153;SDS011;8182;55.648;13.208;2024-03-06T13:22:29;14.43;;;8.50;;
16153;SDS011;8182;55.648;13.208;2024-03-06T13:24:56;13.87;;;6.63;;
16153;SDS011;8182;55.648;13.208;2024-03-06T13:27:24;13.07;;;8.37;;
16153;SDS011;8182;55.648;13.208;2024-03-06T13:29:51;14.63;;;8.50;;
16153;SDS011;8182;55.648;13.208;2024-03-06T13:32:18;14.27;;;8.43;;
16153;SDS011;8182;55.648;13.208;2024-03-06T13:34:44;14.73;;;8.40;;
16153;SDS011;8182;55.648;13.208;2024-03-06T13:37:11;11.97;;;8.50;;
16153;SDS011;8182;55.648;13.208;2024-03-06T13:39:38;12.53;;;7.80;;
16153;SDS011;8182;55.648;13.208;2024-03-06T13:42:05;11.17;;;7.63;;
16153;SDS011;8182;55.648;13.208;2024-03-06T13:44:35;11.37;;;8.00;;
16153;SDS011;8182;55.648;13.208;2024-03-06T13:47:02;10.20;;;6.07;;
16153;SDS011;8182;55.648;13.208;2024-03-06T13:49:36;13.13;;;7.83;;
16153;SDS011;8182;55.648;13.208;2024-03-06T13:52:04;16.07;;;8.00;;
16153;SDS011;8182;55.648;13.208;2024-03-06T13:54:32;9.03;;;4.47;;
16153;SDS011;8182;55.648;13.208;2024-03-06T13:56:59;14.03;;;8.23;;
16153;SDS011;8182;55.648;13.208;2024-03-06T13:59:27;12.53;;;7.40;;
16153;SDS011;8182;55.648;13.208;2024-03-06T14:01:56;9.10;;;7.33;;
16153;SDS011;8182;55.648;13.208;2024-03-06T14:04:25;11.97;;;7.10;;
16153;SDS011;8182;55.648;13.208;2024-03-06T14:06:52;13.50;;;7.90;;
16153;SDS011;8182;55.648;13.208;2024-03-06T14:09:19;6.53;;;4.00;;
16153;SDS011;8182;55.648;13.208;2024-03-06T14:11:48;9.43;;;7.00;;
16153;SDS011;8182;55.648;13.208;2024-03-06T14:14:15;10.43;;;7.20;;
16153;SDS011;8182;55.648;13.208;2024-03-06T14:16:42;12.67;;;7.67;;
16153;SDS011;8182;55.648;13.208;2024-03-06T14:19:11;14.33;;;7.80;;
16153;SDS011;8182;55.648;13.208;2024-03-06T14:21:38;7.67;;;5.50;;
16153;SDS011;8182;55.648;13.208;2024-03-06T14:24:05;15.13;;;6.90;;
16153;SDS011;8182;55.648;13.208;2024-03-06T14:26:33;10.77;;;7.50;;
16153;SDS011;8182;55.648;13.208;2024-03-06T14:29:00;10.80;;;6.90;;
16153;SDS011;8182;55.648;13.208;2024-03-06T14:31:28;11.43;;;7.40;;
16153;SDS011;8182;55.648;13.208;2024-03-06T14:33:55;13.30;;;6.97;;
16153;SDS011;8182;55.648;13.208;2024-03-06T14:36:23;10.43;;;6.00;;
16153;SDS011;8182;55.648;13.208;2024-03-06T14:38:50;12.07;;;6.33;;
16153;SDS011;8182;55.648;13.208;2024-03-06T14:41:18;11.80;;;6.97;;
16153;SDS011;8182;55.648;13.208;2024-03-06T14:43:47;10.97;;;6.23;;